createdAt,value
2023-03-17T00:01:45.042Z,57.23
2023-03-17T00:04:13.599Z,54.35
2023-03-17T00:06:41.797Z,54.16
2023-03-17T00:09:15.037Z,54.55
2023-03-17T00:11:43.753Z,55.66
2023-03-17T00:14:11.091Z,56.03
2023-03-17T00:16:41.667Z,56.39
2023-03-17T00:19:18.565Z,56.82
2023-03-17T00:21:49.394Z,57.44
2023-03-17T00:24:16.554Z,58.04
2023-03-17T00:26:43.970Z,58.56
2023-03-17T00:29:11.039Z,59.13
2023-03-17T00:31:39.758Z,59.63
2023-03-17T00:34:08.246Z,60.14
2023-03-17T00:36:36.236Z,60.84
2023-03-17T00:39:04.311Z,61.58
2023-03-17T00:41:31.148Z,63.75
2023-03-17T00:43:58.915Z,69.82
2023-03-17T00:46:29.483Z,71.88
2023-03-17T00:49:26.518Z,71.36
2023-03-17T00:51:58.443Z,69.77
2023-03-17T00:54:33.320Z,68.19
2023-03-17T00:57:07.796Z,66.73
2023-03-17T00:59:46.005Z,65.47
2023-03-17T01:02:14.097Z,64.52
2023-03-17T01:04:45.525Z,63.98
2023-03-17T01:07:14.395Z,63.70
2023-03-17T01:09:41.648Z,63.02
2023-03-17T01:12:12.946Z,62.32
2023-03-17T01:14:41.221Z,62.04
2023-03-17T01:17:17.274Z,61.72
2023-03-17T01:19:45.742Z,61.09
2023-03-17T01:22:13.903Z,60.66
2023-03-17T01:24:41.533Z,60.34
2023-03-17T01:27:08.686Z,60.46
2023-03-17T01:29:35.867Z,60.19
2023-03-17T01:32:02.993Z,58.20
2023-03-17T01:34:29.815Z,55.27
2023-03-17T01:36:56.985Z,54.48
2023-03-17T01:39:23.804Z,55.07
2023-03-17T01:41:50.984Z,55.35
2023-03-17T01:44:19.956Z,56.19
2023-03-17T01:46:47.786Z,56.86
2023-03-17T01:49:25.436Z,57.91
2023-03-17T01:52:14.432Z,58.75
2023-03-17T01:55:10.865Z,59.22
2023-03-17T01:57:51.715Z,59.99
2023-03-17T02:00:23.557Z,60.52
2023-03-17T02:02:54.221Z,63.31
2023-03-17T02:05:24.573Z,66.46
2023-03-17T02:07:52.754Z,66.72
2023-03-17T02:10:22.185Z,66.20
2023-03-17T02:12:54.025Z,65.31
2023-03-17T02:15:22.943Z,64.91
2023-03-17T02:17:50.244Z,64.38
2023-03-17T02:20:17.510Z,62.91
2023-03-17T02:22:47.836Z,62.49
2023-03-17T02:25:15.072Z,63.01
2023-03-17T02:27:46.599Z,61.69
2023-03-17T02:30:16.594Z,60.87
2023-03-17T02:32:43.801Z,61.12
2023-03-17T02:35:11.434Z,61.54
2023-03-17T02:37:38.919Z,62.83
2023-03-17T02:40:07.950Z,62.78
2023-03-17T02:42:35.921Z,62.19
2023-03-17T02:45:03.182Z,60.75
2023-03-17T02:47:30.273Z,60.16
2023-03-17T02:49:57.452Z,57.66
2023-03-17T02:52:25.562Z,54.13
2023-03-17T02:54:52.414Z,53.44
2023-03-17T02:57:19.673Z,54.31
2023-03-17T02:59:47.039Z,54.69
2023-03-17T03:02:14.841Z,55.57
2023-03-17T03:04:42.357Z,56.47
2023-03-17T03:07:10.314Z,57.19
2023-03-17T03:09:37.699Z,57.80
2023-03-17T03:12:06.817Z,58.78
2023-03-17T03:14:33.934Z,59.39
2023-03-17T03:17:00.857Z,60.08
2023-03-17T03:19:28.019Z,60.50
2023-03-17T03:21:54.946Z,61.26
2023-03-17T03:24:21.776Z,61.72
2023-03-17T03:26:48.616Z,63.88
2023-03-17T03:29:15.577Z,70.58
2023-03-17T03:31:43.138Z,72.95
2023-03-17T03:34:10.041Z,72.44
2023-03-17T03:36:37.346Z,70.66
2023-03-17T03:39:04.496Z,68.60
2023-03-17T03:41:32.021Z,66.44
2023-03-17T03:43:58.846Z,65.10
2023-03-17T03:46:26.972Z,64.32
2023-03-17T03:48:55.289Z,63.43
2023-03-17T03:51:22.174Z,62.99
2023-03-17T03:53:49.177Z,62.34
2023-03-17T03:56:16.220Z,61.31
2023-03-17T03:58:43.172Z,61.34
2023-03-17T04:01:10.505Z,61.00
2023-03-17T04:03:38.538Z,60.27
2023-03-17T04:06:06.490Z,57.65
2023-03-17T04:08:33.944Z,54.00
2023-03-17T04:11:01.299Z,53.29
2023-03-17T04:13:28.647Z,54.26
2023-03-17T04:15:55.609Z,55.05
2023-03-17T04:18:22.610Z,56.97
2023-03-17T04:20:49.568Z,57.20
2023-03-17T04:23:16.488Z,57.60
2023-03-17T04:25:43.425Z,58.20
2023-03-17T04:28:11.335Z,58.92
2023-03-17T04:30:38.652Z,60.26
2023-03-17T04:33:05.458Z,61.06
2023-03-17T04:35:32.491Z,63.17
2023-03-17T04:37:59.370Z,68.44
2023-03-17T04:40:26.946Z,70.49
2023-03-17T04:42:53.800Z,67.74
2023-03-17T04:45:21.255Z,67.18
2023-03-17T04:47:48.179Z,67.00
2023-03-17T04:50:15.217Z,65.00
2023-03-17T04:52:42.495Z,63.38
2023-03-17T04:55:12.146Z,61.54
2023-03-17T04:57:39.111Z,60.67
2023-03-17T05:00:07.893Z,60.55
2023-03-17T05:02:35.606Z,61.19
2023-03-17T05:05:08.112Z,60.51
2023-03-17T05:07:35.274Z,57.33
2023-03-17T05:10:02.524Z,53.57
2023-03-17T05:12:29.576Z,53.41
2023-03-17T05:14:56.434Z,54.10
2023-03-17T05:17:23.469Z,55.10
2023-03-17T05:19:50.608Z,55.84
2023-03-17T05:22:17.460Z,56.14
2023-03-17T05:24:45.005Z,57.15
2023-03-17T05:27:12.502Z,58.26
2023-03-17T05:29:39.863Z,58.61
2023-03-17T05:32:06.816Z,59.22
2023-03-17T05:34:34.033Z,60.39
2023-03-17T05:37:01.782Z,61.06
2023-03-17T05:39:28.935Z,61.85
2023-03-17T05:41:57.512Z,65.10
2023-03-17T05:44:25.385Z,69.22
2023-03-17T05:46:52.299Z,69.29
2023-03-17T05:49:19.334Z,67.20
2023-03-17T05:51:46.698Z,65.03
2023-03-17T05:54:14.187Z,64.05
2023-03-17T05:56:41.944Z,62.82
2023-03-17T05:59:10.664Z,62.07
2023-03-17T06:01:37.646Z,61.89
2023-03-17T06:04:05.076Z,60.57
2023-03-17T06:06:32.589Z,57.87
2023-03-17T06:09:00.175Z,55.53
2023-03-17T06:11:27.778Z,55.62
2023-03-17T06:13:54.993Z,56.36
2023-03-17T06:16:22.810Z,57.49
2023-03-17T06:18:50.110Z,59.57
2023-03-17T06:21:17.557Z,60.70
2023-03-17T06:23:44.586Z,62.87
2023-03-17T06:26:11.582Z,66.49
2023-03-17T06:28:38.587Z,65.93
2023-03-17T06:31:07.342Z,65.28
2023-03-17T06:33:35.547Z,63.20
2023-03-17T06:36:03.615Z,61.78
2023-03-17T06:38:30.667Z,62.41
2023-03-17T06:40:58.479Z,62.34
2023-03-17T06:43:25.545Z,57.86
2023-03-17T06:45:53.081Z,55.54
2023-03-17T06:48:20.311Z,56.41
2023-03-17T06:50:50.529Z,57.16
2023-03-17T06:53:17.793Z,57.62
2023-03-17T06:55:45.876Z,58.99
2023-03-17T06:58:13.547Z,60.19
2023-03-17T07:00:41.228Z,60.58
2023-03-17T07:03:08.315Z,61.37
2023-03-17T07:05:35.291Z,63.12
2023-03-17T07:08:02.269Z,65.36
2023-03-17T07:10:29.468Z,64.70
2023-03-17T07:12:57.067Z,63.51
2023-03-17T07:15:24.363Z,60.63
2023-03-17T07:17:51.561Z,57.57
2023-03-17T07:20:19.545Z,54.27
2023-03-17T07:22:46.935Z,55.58
2023-03-17T07:25:24.528Z,56.92
2023-03-17T07:28:06.687Z,57.63
2023-03-17T07:30:43.914Z,58.02
2023-03-17T07:33:11.898Z,57.91
2023-03-17T07:35:38.945Z,57.54
2023-03-17T07:38:06.385Z,59.15
2023-03-17T07:40:35.237Z,59.22
2023-03-17T07:43:02.935Z,58.29
2023-03-17T07:45:30.090Z,58.17
2023-03-17T07:47:57.832Z,58.80
2023-03-17T07:50:25.319Z,57.55
2023-03-17T07:52:52.296Z,57.48
2023-03-17T07:55:19.336Z,56.44
2023-03-17T07:57:46.869Z,56.10
2023-03-17T08:00:14.802Z,56.12
2023-03-17T08:02:41.924Z,56.07
2023-03-17T08:05:10.547Z,56.69
2023-03-17T08:07:41.101Z,55.66
2023-03-17T08:10:11.984Z,55.53
2023-03-17T08:12:39.894Z,55.06
2023-03-17T08:15:08.260Z,52.97
2023-03-17T08:17:36.826Z,53.09
2023-03-17T08:20:05.340Z,53.51
2023-03-17T08:22:32.650Z,52.82
2023-03-17T08:24:59.496Z,51.72
2023-03-17T08:27:27.015Z,52.01
2023-03-17T08:29:54.093Z,49.89
2023-03-17T08:32:21.025Z,50.20
2023-03-17T08:34:48.792Z,49.02
2023-03-17T08:37:15.734Z,50.49
2023-03-17T08:39:42.881Z,49.48
2023-03-17T08:42:10.062Z,49.02
2023-03-17T08:44:37.743Z,49.01
2023-03-17T08:47:05.036Z,48.12
2023-03-17T08:49:35.120Z,46.18
2023-03-17T08:52:03.745Z,47.11
2023-03-17T08:54:30.871Z,47.07
2023-03-17T08:56:58.723Z,46.98
2023-03-17T08:59:25.700Z,46.70
2023-03-17T09:01:52.743Z,45.92
2023-03-17T09:04:21.010Z,46.45
2023-03-17T09:07:02.316Z,46.26
2023-03-17T09:09:31.521Z,44.93
2023-03-17T09:11:58.413Z,44.92
2023-03-17T09:14:25.834Z,46.64
2023-03-17T09:16:53.240Z,45.35
2023-03-17T09:19:21.419Z,45.42
2023-03-17T09:21:49.109Z,43.76
2023-03-17T09:24:16.684Z,43.58
2023-03-17T09:26:44.199Z,43.60
2023-03-17T09:29:11.193Z,42.17
2023-03-17T09:31:38.913Z,42.39
2023-03-17T09:34:06.798Z,41.45
2023-03-17T09:36:34.061Z,41.82
2023-03-17T09:39:01.744Z,41.69
2023-03-17T09:41:57.358Z,40.45
2023-03-17T09:44:50.755Z,40.34
2023-03-17T09:47:36.420Z,39.14
2023-03-17T09:50:11.016Z,37.91
2023-03-17T09:52:39.318Z,37.15
2023-03-17T09:55:12.632Z,37.08
2023-03-17T09:57:41.158Z,34.27
2023-03-17T10:00:23.352Z,34.38
2023-03-17T10:02:50.697Z,35.49
2023-03-17T10:05:17.696Z,35.25
2023-03-17T10:08:26.851Z,35.17
2023-03-17T10:11:35.433Z,36.80
2023-03-17T10:14:18.250Z,35.31
2023-03-17T10:16:57.334Z,35.57
2023-03-17T10:19:39.847Z,33.37
2023-03-17T10:23:04.111Z,33.23
2023-03-17T10:25:44.566Z,34.51
2023-03-17T10:28:36.257Z,33.43
2023-03-17T10:31:30.056Z,32.44
2023-03-17T10:34:38.551Z,33.68
2023-03-17T10:37:46.302Z,32.43
2023-03-17T10:40:29.869Z,32.50
2023-03-17T10:43:12.723Z,32.88
2023-03-17T10:45:46.957Z,33.27
2023-03-17T10:48:22.874Z,31.75
2023-03-17T10:51:00.680Z,31.88
2023-03-17T10:53:45.771Z,32.18
2023-03-17T10:56:28.238Z,31.44
2023-03-17T10:59:26.633Z,30.73
2023-03-17T11:01:58.277Z,30.66
2023-03-17T11:04:38.293Z,30.85
2023-03-17T11:07:17.082Z,30.49
2023-03-17T11:09:49.873Z,30.36
2023-03-17T11:12:39.816Z,29.54
2023-03-17T11:15:14.377Z,29.68
2023-03-17T11:17:59.298Z,29.55
2023-03-17T11:21:01.796Z,29.31
2023-03-17T11:24:02.196Z,30.13
2023-03-17T11:26:32.276Z,30.22
2023-03-17T11:29:31.168Z,29.75
2023-03-17T11:32:34.138Z,30.43
2023-03-17T11:35:38.550Z,30.11
2023-03-17T11:38:42.213Z,29.70
2023-03-17T11:41:31.895Z,29.68
2023-03-17T11:44:19.176Z,28.66
2023-03-17T11:46:52.882Z,28.79
2023-03-17T11:49:25.365Z,28.90
2023-03-17T11:52:34.466Z,29.00
2023-03-17T11:55:42.383Z,29.44
2023-03-17T11:58:19.790Z,29.38
2023-03-17T12:01:00.714Z,29.33
2023-03-17T12:03:46.778Z,28.85
2023-03-17T12:06:20.809Z,28.65
2023-03-17T12:08:52.963Z,27.36
2023-03-17T12:11:28.334Z,27.27
2023-03-17T12:14:12.132Z,28.38
2023-03-17T12:16:44.221Z,28.09
2023-03-17T12:19:53.002Z,27.99
2023-03-17T12:22:31.292Z,28.09
2023-03-17T12:25:18.299Z,27.52
2023-03-17T12:28:00.821Z,27.63
2023-03-17T12:30:45.901Z,27.26
2023-03-17T12:33:39.440Z,26.98
2023-03-17T12:36:08.331Z,27.31
2023-03-17T12:38:43.809Z,26.61
2023-03-17T12:41:18.768Z,26.23
2023-03-17T12:44:04.210Z,25.29
2023-03-17T12:46:50.578Z,24.63
2023-03-17T12:49:44.149Z,25.61
2023-03-17T12:52:32.092Z,26.24
2023-03-17T12:55:25.418Z,26.90
2023-03-17T12:58:31.222Z,26.37
2023-03-17T13:01:17.863Z,26.55
2023-03-17T13:04:13.704Z,25.99
2023-03-17T13:06:58.144Z,26.50
2023-03-17T13:09:38.833Z,26.11
2023-03-17T13:12:07.073Z,26.71
2023-03-17T13:14:48.352Z,26.84
2023-03-17T13:17:19.115Z,26.57
2023-03-17T13:20:14.860Z,26.54
2023-03-17T13:23:13.882Z,26.81
2023-03-17T13:25:45.872Z,26.80
2023-03-17T13:28:13.276Z,26.17
2023-03-17T13:31:52.527Z,26.15
2023-03-17T13:34:21.452Z,26.87
2023-03-17T13:36:54.362Z,26.57
2023-03-17T13:39:42.715Z,26.27
2023-03-17T13:42:39.206Z,27.03
2023-03-17T13:45:24.638Z,27.25
2023-03-17T13:47:52.974Z,27.23
2023-03-17T13:50:33.055Z,26.96
2023-03-17T13:53:08.475Z,27.25
2023-03-17T13:55:39.407Z,27.28
2023-03-17T13:58:11.577Z,27.05
2023-03-17T14:00:42.567Z,27.11
2023-03-17T14:03:20.212Z,27.41
2023-03-17T14:05:49.602Z,27.27
2023-03-17T14:08:23.005Z,27.40
2023-03-17T14:10:58.285Z,27.57
2023-03-17T14:13:28.369Z,27.47
2023-03-17T14:16:03.932Z,27.40
2023-03-17T14:18:36.335Z,27.19
2023-03-17T14:21:10.505Z,27.27
2023-03-17T14:23:39.198Z,27.28
2023-03-17T14:26:12.313Z,27.26
2023-03-17T14:28:39.439Z,27.48
2023-03-17T14:31:08.427Z,27.65
2023-03-17T14:33:41.383Z,27.54
2023-03-17T14:36:14.329Z,27.76
2023-03-17T14:38:48.899Z,27.92
2023-03-17T14:41:27.605Z,27.97
2023-03-17T14:43:59.643Z,27.74
2023-03-17T14:46:28.186Z,27.79
2023-03-17T14:49:17.998Z,27.80
2023-03-17T14:51:49.342Z,27.92
2023-03-17T14:54:28.697Z,28.00
2023-03-17T14:57:02.398Z,28.09
2023-03-17T14:59:35.495Z,28.07
2023-03-17T15:02:28.799Z,27.87
2023-03-17T15:05:24.891Z,27.93
2023-03-17T15:07:52.127Z,27.94
2023-03-17T15:10:24.840Z,27.80
2023-03-17T15:13:05.250Z,27.80
2023-03-17T15:15:50.751Z,27.90
2023-03-17T15:18:31.712Z,27.85
2023-03-17T15:21:11.755Z,28.03
2023-03-17T15:23:41.998Z,28.14
2023-03-17T15:26:22.921Z,27.99
2023-03-17T15:28:49.897Z,27.93
2023-03-17T15:31:16.971Z,28.00
2023-03-17T15:33:44.998Z,28.00
2023-03-17T15:36:31.838Z,28.10
2023-03-17T15:38:59.886Z,28.22
2023-03-17T15:41:26.901Z,28.33
2023-03-17T15:43:53.984Z,28.36
2023-03-17T15:46:27.805Z,28.42
2023-03-17T15:48:55.646Z,28.57
2023-03-17T15:51:23.241Z,28.65
2023-03-17T15:53:50.502Z,28.83
2023-03-17T15:56:21.182Z,28.96
2023-03-17T15:58:49.558Z,29.07
2023-03-17T16:01:17.508Z,29.09
2023-03-17T16:03:48.222Z,29.09
2023-03-17T16:06:18.525Z,29.23
2023-03-17T16:08:46.749Z,29.21
2023-03-17T16:11:31.430Z,29.31
2023-03-17T16:14:00.427Z,29.38
2023-03-17T16:16:34.170Z,29.42
2023-03-17T16:19:17.768Z,29.52
2023-03-17T16:21:51.483Z,29.62
2023-03-17T16:24:27.614Z,29.61
2023-03-17T16:26:54.803Z,29.65
2023-03-17T16:29:21.904Z,29.74
2023-03-17T16:31:51.247Z,29.76
2023-03-17T16:34:22.653Z,29.82
2023-03-17T16:36:50.915Z,29.89
2023-03-17T16:39:21.618Z,30.05
2023-03-17T16:41:50.277Z,30.14
2023-03-17T16:44:20.248Z,30.33
2023-03-17T16:46:48.312Z,30.44
2023-03-17T16:49:18.241Z,30.64
2023-03-17T16:51:45.865Z,30.77
2023-03-17T16:54:13.297Z,30.94
2023-03-17T16:56:42.688Z,31.14
2023-03-17T16:59:32.008Z,31.18
2023-03-17T17:01:59.174Z,31.22
2023-03-17T17:04:26.510Z,31.49
2023-03-17T17:06:53.690Z,31.65
2023-03-17T17:09:20.591Z,31.77
2023-03-17T17:11:47.538Z,31.82
2023-03-17T17:14:14.694Z,31.84
2023-03-17T17:16:41.737Z,31.97
2023-03-17T17:19:18.005Z,32.06
2023-03-17T17:21:45.363Z,32.28
2023-03-17T17:24:13.869Z,32.26
2023-03-17T17:26:41.178Z,32.56
2023-03-17T17:29:08.127Z,32.63
2023-03-17T17:31:35.236Z,32.67
2023-03-17T17:34:10.222Z,32.91
2023-03-17T17:36:51.580Z,32.81
2023-03-17T17:39:35.879Z,33.08
2023-03-17T17:42:04.832Z,33.10
2023-03-17T17:44:38.729Z,33.29
2023-03-17T17:47:26.303Z,33.42
2023-03-17T17:50:08.955Z,33.40
2023-03-17T17:52:35.909Z,33.46
2023-03-17T17:55:03.031Z,33.70
2023-03-17T17:57:30.153Z,33.68
2023-03-17T17:59:58.018Z,33.80
2023-03-17T18:02:25.027Z,33.80
2023-03-17T18:04:53.077Z,33.82
2023-03-17T18:07:20.113Z,33.91
2023-03-17T18:09:47.199Z,33.98
2023-03-17T18:12:14.865Z,34.13
2023-03-17T18:14:42.088Z,34.23
2023-03-17T18:17:09.317Z,34.23
2023-03-17T18:19:36.300Z,34.16
2023-03-17T18:22:04.128Z,34.29
2023-03-17T18:24:31.671Z,34.50
2023-03-17T18:26:59.036Z,34.50
2023-03-17T18:29:26.184Z,34.52
2023-03-17T18:31:55.244Z,34.69
2023-03-17T18:34:25.711Z,34.68
2023-03-17T18:36:53.828Z,34.74
2023-03-17T18:39:20.919Z,34.89
2023-03-17T18:41:48.898Z,34.89
2023-03-17T18:44:16.748Z,35.05
2023-03-17T18:46:44.627Z,35.22
2023-03-17T18:49:11.925Z,35.27
2023-03-17T18:51:39.428Z,35.33
2023-03-17T18:54:07.075Z,35.43
2023-03-17T18:56:34.476Z,35.56
2023-03-17T18:59:01.585Z,35.73
2023-03-17T19:01:28.700Z,35.76
2023-03-17T19:03:55.975Z,35.89
2023-03-17T19:06:23.822Z,36.06
2023-03-17T19:08:51.295Z,36.23
2023-03-17T19:11:21.910Z,36.25
2023-03-17T19:13:51.285Z,36.43
2023-03-17T19:16:19.262Z,36.48
2023-03-17T19:18:46.565Z,36.66
2023-03-17T19:21:13.790Z,36.85
2023-03-17T19:23:41.854Z,37.11
2023-03-17T19:26:09.321Z,37.38
2023-03-17T19:28:36.261Z,37.67
2023-03-17T19:31:04.141Z,37.69
2023-03-17T19:33:32.829Z,37.95
2023-03-17T19:36:05.825Z,38.11
2023-03-17T19:38:33.355Z,38.36
2023-03-17T19:41:00.955Z,38.73
2023-03-17T19:43:39.960Z,39.15
2023-03-17T19:46:10.210Z,39.54
2023-03-17T19:48:37.742Z,40.11
2023-03-17T19:51:05.314Z,40.77
2023-03-17T19:53:32.648Z,41.41
2023-03-17T19:56:01.376Z,41.94
2023-03-17T19:58:28.722Z,42.41
2023-03-17T20:00:55.764Z,42.75
2023-03-17T20:03:25.594Z,43.14
2023-03-17T20:05:53.686Z,43.42
2023-03-17T20:08:22.674Z,43.67
2023-03-17T20:10:54.095Z,43.99
2023-03-17T20:13:22.830Z,44.19
2023-03-17T20:15:52.120Z,44.45
2023-03-17T20:18:20.245Z,44.64
2023-03-17T20:20:52.576Z,44.98
2023-03-17T20:23:19.990Z,45.30
2023-03-17T20:25:47.234Z,45.57
2023-03-17T20:28:14.957Z,45.74
2023-03-17T20:30:44.305Z,45.78
2023-03-17T20:33:13.248Z,45.89
2023-03-17T20:35:42.565Z,46.13
2023-03-17T20:38:12.963Z,45.59
2023-03-17T20:40:40.968Z,45.28
2023-03-17T20:43:08.237Z,45.50
2023-03-17T20:45:36.319Z,45.46
2023-03-17T20:48:03.847Z,45.61
2023-03-17T20:50:31.403Z,46.07
2023-03-17T20:52:58.798Z,46.34
2023-03-17T20:55:26.081Z,46.47
2023-03-17T20:57:53.527Z,46.69
2023-03-17T21:00:22.258Z,46.65
2023-03-17T21:02:50.981Z,46.76
2023-03-17T21:05:21.372Z,46.93
2023-03-17T21:07:49.330Z,47.23
2023-03-17T21:10:17.711Z,47.43
2023-03-17T21:12:45.196Z,47.65
2023-03-17T21:15:13.209Z,48.13
2023-03-17T21:17:40.689Z,48.48
2023-03-17T21:20:10.185Z,48.65
2023-03-17T21:22:37.248Z,48.95
2023-03-17T21:25:05.518Z,49.13
2023-03-17T21:27:32.685Z,48.92
2023-03-17T21:29:59.718Z,49.01
2023-03-17T21:32:27.051Z,49.25
2023-03-17T21:34:54.680Z,49.74
2023-03-17T21:37:22.197Z,49.50
2023-03-17T21:39:49.830Z,49.58
2023-03-17T21:42:16.992Z,50.04
2023-03-17T21:44:46.158Z,50.38
2023-03-17T21:47:13.235Z,50.61
2023-03-17T21:49:40.598Z,50.90
2023-03-17T21:52:08.462Z,51.33
2023-03-17T21:54:35.578Z,51.86
2023-03-17T21:57:04.128Z,52.24
2023-03-17T21:59:34.703Z,52.56
2023-03-17T22:02:02.465Z,52.94
2023-03-17T22:04:30.756Z,53.22
2023-03-17T22:06:59.154Z,53.69
2023-03-17T22:09:27.170Z,54.11
2023-03-17T22:11:54.493Z,54.59
2023-03-17T22:14:22.438Z,54.93
2023-03-17T22:16:49.884Z,55.27
2023-03-17T22:19:20.623Z,55.58
2023-03-17T22:21:48.847Z,55.85
2023-03-17T22:24:17.131Z,56.09
2023-03-17T22:26:44.652Z,56.22
2023-03-17T22:29:11.722Z,56.46
2023-03-17T22:31:38.761Z,56.74
2023-03-17T22:34:07.220Z,56.96
2023-03-17T22:36:34.257Z,57.22
2023-03-17T22:39:01.340Z,57.53
2023-03-17T22:41:29.914Z,57.73
2023-03-17T22:43:58.015Z,57.88
2023-03-17T22:46:25.280Z,58.05
2023-03-17T22:48:53.217Z,58.41
2023-03-17T22:51:23.244Z,58.52
2023-03-17T22:53:52.108Z,58.61
2023-03-17T22:56:20.115Z,58.81
2023-03-17T22:58:48.193Z,59.04
2023-03-17T23:01:16.958Z,59.04
2023-03-17T23:03:45.348Z,59.17
2023-03-17T23:06:13.495Z,59.31
2023-03-17T23:08:43.387Z,59.36
2023-03-17T23:11:17.704Z,59.22
2023-03-17T23:13:46.418Z,59.01
2023-03-17T23:16:15.035Z,58.78
2023-03-17T23:18:46.113Z,58.79
2023-03-17T23:21:22.068Z,58.62
2023-03-17T23:23:49.853Z,58.10
2023-03-17T23:26:17.089Z,58.22
2023-03-17T23:28:45.237Z,58.35
2023-03-17T23:31:13.583Z,58.05
2023-03-17T23:33:40.496Z,57.54
2023-03-17T23:36:09.548Z,57.71
2023-03-17T23:38:37.017Z,57.54
2023-03-17T23:41:04.093Z,57.49
2023-03-17T23:43:31.448Z,57.34
2023-03-17T23:45:58.752Z,56.99
2023-03-17T23:48:25.698Z,57.21
2023-03-17T23:50:53.300Z,57.34
2023-03-17T23:53:22.670Z,57.67
2023-03-17T23:55:50.639Z,57.95
2023-03-17T23:58:18.597Z,58.05
